sensor_id;sensor_type;location;lat;lon;timestamp;pressure;altitude;pressure_sealevel;temperature
76476;BMP280;65308;50.078;14.854;2023-04-15T00:02:15;97673.16;;;9.24
76476;BMP280;65308;50.078;14.854;2023-04-15T00:04:42;97669.75;;;9.44
76476;BMP280;65308;50.078;14.854;2023-04-15T00:07:10;97663.25;;;9.45
76476;BMP280;65308;50.078;14.854;2023-04-15T00:09:38;97656.22;;;9.12
76476;BMP280;65308;50.078;14.854;2023-04-15T00:12:04;97662.59;;;9.00
76476;BMP280;65308;50.078;14.854;2023-04-15T00:14:32;97663.47;;;9.11
76476;BMP280;65308;50.078;14.854;2023-04-15T00:17:00;97656.53;;;8.99
76476;BMP280;65308;50.078;14.854;2023-04-15T00:19:26;97658.28;;;9.02
76476;BMP280;65308;50.078;14.854;2023-04-15T00:21:53;97660.25;;;9.22
76476;BMP280;65308;50.078;14.854;2023-04-15T00:24:22;97658.34;;;9.08
76476;BMP280;65308;50.078;14.854;2023-04-15T00:26:49;97662.00;;;9.10
76476;BMP280;65308;50.078;14.854;2023-04-15T00:29:15;97660.66;;;9.15
76476;BMP280;65308;50.078;14.854;2023-04-15T00:31:42;97649.63;;;8.78
76476;BMP280;65308;50.078;14.854;2023-04-15T00:34:09;97642.09;;;8.61
76476;BMP280;65308;50.078;14.854;2023-04-15T00:36:35;97640.44;;;8.79
76476;BMP280;65308;50.078;14.854;2023-04-15T00:39:02;97633.66;;;8.63
76476;BMP280;65308;50.078;14.854;2023-04-15T00:41:31;97624.06;;;8.41
76476;BMP280;65308;50.078;14.854;2023-04-15T00:43:58;97625.00;;;8.38
76476;BMP280;65308;50.078;14.854;2023-04-15T00:46:28;97624.81;;;8.27
76476;BMP280;65308;50.078;14.854;2023-04-15T00:48:56;97620.03;;;8.31
76476;BMP280;65308;50.078;14.854;2023-04-15T00:51:22;97620.75;;;8.46
76476;BMP280;65308;50.078;14.854;2023-04-15T00:53:49;97616.72;;;8.51
76476;BMP280;65308;50.078;14.854;2023-04-15T00:56:18;97626.19;;;8.52
76476;BMP280;65308;50.078;14.854;2023-04-15T00:58:47;97640.91;;;8.47
76476;BMP280;65308;50.078;14.854;2023-04-15T01:01:14;97646.25;;;8.62
76476;BMP280;65308;50.078;14.854;2023-04-15T01:03:41;97658.09;;;8.76
76476;BMP280;65308;50.078;14.854;2023-04-15T01:06:07;97662.69;;;9.05
76476;BMP280;65308;50.078;14.854;2023-04-15T01:08:34;97668.25;;;9.22
76476;BMP280;65308;50.078;14.854;2023-04-15T01:11:01;97677.03;;;9.43
76476;BMP280;65308;50.078;14.854;2023-04-15T01:13:29;97671.78;;;9.49
76476;BMP280;65308;50.078;14.854;2023-04-15T01:15:58;97689.13;;;9.38
76476;BMP280;65308;50.078;14.854;2023-04-15T01:18:25;97693.72;;;9.38
76476;BMP280;65308;50.078;14.854;2023-04-15T01:20:52;97690.66;;;9.45
76476;BMP280;65308;50.078;14.854;2023-04-15T01:23:19;97685.16;;;9.69
76476;BMP280;65308;50.078;14.854;2023-04-15T01:25:49;97690.19;;;9.47
76476;BMP280;65308;50.078;14.854;2023-04-15T01:28:15;97681.19;;;9.44
76476;BMP280;65308;50.078;14.854;2023-04-15T01:30:42;97680.28;;;9.47
76476;BMP280;65308;50.078;14.854;2023-04-15T01:33:09;97680.72;;;9.46
76476;BMP280;65308;50.078;14.854;2023-04-15T01:35:36;97680.16;;;9.21
76476;BMP280;65308;50.078;14.854;2023-04-15T01:38:08;97679.56;;;9.32
76476;BMP280;65308;50.078;14.854;2023-04-15T01:40:35;97678.00;;;9.40
76476;BMP280;65308;50.078;14.854;2023-04-15T01:43:04;97675.66;;;9.48
76476;BMP280;65308;50.078;14.854;2023-04-15T01:45:31;97671.09;;;9.54
76476;BMP280;65308;50.078;14.854;2023-04-15T01:47:58;97679.00;;;9.83
76476;BMP280;65308;50.078;14.854;2023-04-15T01:50:25;97677.53;;;10.03
76476;BMP280;65308;50.078;14.854;2023-04-15T01:52:52;97673.41;;;10.02
76476;BMP280;65308;50.078;14.854;2023-04-15T01:55:19;97671.03;;;10.09
76476;BMP280;65308;50.078;14.854;2023-04-15T01:57:46;97669.97;;;10.22
76476;BMP280;65308;50.078;14.854;2023-04-15T02:00:15;97669.38;;;10.38
76476;BMP280;65308;50.078;14.854;2023-04-15T02:02:42;97676.09;;;10.54
76476;BMP280;65308;50.078;14.854;2023-04-15T02:05:09;97672.06;;;10.64
76476;BMP280;65308;50.078;14.854;2023-04-15T02:07:35;97674.31;;;10.71
76476;BMP280;65308;50.078;14.854;2023-04-15T02:10:02;97675.50;;;10.70
76476;BMP280;65308;50.078;14.854;2023-04-15T02:12:29;97672.13;;;10.75
76476;BMP280;65308;50.078;14.854;2023-04-15T02:14:56;97678.28;;;10.81
76476;BMP280;65308;50.078;14.854;2023-04-15T02:17:24;97676.34;;;10.82
76476;BMP280;65308;50.078;14.854;2023-04-15T02:19:51;97683.94;;;10.89
76476;BMP280;65308;50.078;14.854;2023-04-15T02:22:18;97688.34;;;10.98
76476;BMP280;65308;50.078;14.854;2023-04-15T02:24:44;97688.66;;;11.05
76476;BMP280;65308;50.078;14.854;2023-04-15T02:27:14;97690.91;;;11.13
76476;BMP280;65308;50.078;14.854;2023-04-15T02:29:42;97691.19;;;11.20
76476;BMP280;65308;50.078;14.854;2023-04-15T02:32:09;97703.53;;;10.49
76476;BMP280;65308;50.078;14.854;2023-04-15T02:34:39;97699.50;;;10.33
76476;BMP280;65308;50.078;14.854;2023-04-15T02:37:07;97707.75;;;10.09
76476;BMP280;65308;50.078;14.854;2023-04-15T02:39:34;97717.81;;;9.99
76476;BMP280;65308;50.078;14.854;2023-04-15T02:42:01;97720.72;;;9.40
76476;BMP280;65308;50.078;14.854;2023-04-15T02:44:28;97727.81;;;9.28
76476;BMP280;65308;50.078;14.854;2023-04-15T02:46:55;97733.25;;;8.89
76476;BMP280;65308;50.078;14.854;2023-04-15T02:49:22;97740.91;;;8.82
76476;BMP280;65308;50.078;14.854;2023-04-15T02:51:50;97728.19;;;8.77
76476;BMP280;65308;50.078;14.854;2023-04-15T02:54:17;97729.47;;;8.66
76476;BMP280;65308;50.078;14.854;2023-04-15T02:56:44;97739.13;;;8.25
76476;BMP280;65308;50.078;14.854;2023-04-15T02:59:11;97733.63;;;7.71
76476;BMP280;65308;50.078;14.854;2023-04-15T03:01:38;97742.56;;;7.68
76476;BMP280;65308;50.078;14.854;2023-04-15T03:04:05;97750.06;;;7.79
76476;BMP280;65308;50.078;14.854;2023-04-15T03:06:32;97750.25;;;7.66
76476;BMP280;65308;50.078;14.854;2023-04-15T03:09:01;97762.38;;;7.67
76476;BMP280;65308;50.078;14.854;2023-04-15T03:11:28;97762.56;;;7.54
76476;BMP280;65308;50.078;14.854;2023-04-15T03:13:55;97766.28;;;7.48
76476;BMP280;65308;50.078;14.854;2023-04-15T03:16:22;97775.59;;;7.43
76476;BMP280;65308;50.078;14.854;2023-04-15T03:18:51;97779.56;;;7.57
76476;BMP280;65308;50.078;14.854;2023-04-15T03:21:18;97766.03;;;7.37
76476;BMP280;65308;50.078;14.854;2023-04-15T03:23:45;97781.44;;;7.14
76476;BMP280;65308;50.078;14.854;2023-04-15T03:26:25;97784.84;;;6.87
76476;BMP280;65308;50.078;14.854;2023-04-15T03:28:52;97780.88;;;6.92
76476;BMP280;65308;50.078;14.854;2023-04-15T03:31:19;97799.94;;;6.72
76476;BMP280;65308;50.078;14.854;2023-04-15T03:33:46;97803.16;;;6.76
76476;BMP280;65308;50.078;14.854;2023-04-15T03:36:12;97804.09;;;6.82
76476;BMP280;65308;50.078;14.854;2023-04-15T03:38:40;97805.09;;;6.66
76476;BMP280;65308;50.078;14.854;2023-04-15T03:41:06;97805.50;;;6.55
76476;BMP280;65308;50.078;14.854;2023-04-15T03:43:35;97809.19;;;6.58
76476;BMP280;65308;50.078;14.854;2023-04-15T03:46:02;97813.47;;;6.55
76476;BMP280;65308;50.078;14.854;2023-04-15T03:48:28;97805.50;;;6.46
76476;BMP280;65308;50.078;14.854;2023-04-15T03:50:55;97800.63;;;6.35
76476;BMP280;65308;50.078;14.854;2023-04-15T03:53:22;97807.09;;;6.44
76476;BMP280;65308;50.078;14.854;2023-04-15T03:55:49;97801.22;;;6.39
76476;BMP280;65308;50.078;14.854;2023-04-15T03:58:16;97800.16;;;6.28
76476;BMP280;65308;50.078;14.854;2023-04-15T04:00:44;97804.78;;;6.55
76476;BMP280;65308;50.078;14.854;2023-04-15T04:03:11;97810.84;;;6.65
76476;BMP280;65308;50.078;14.854;2023-04-15T04:05:38;97819.06;;;6.39
76476;BMP280;65308;50.078;14.854;2023-04-15T04:08:06;97815.38;;;6.46
76476;BMP280;65308;50.078;14.854;2023-04-15T04:10:32;97820.94;;;6.29
76476;BMP280;65308;50.078;14.854;2023-04-15T04:12:59;97830.41;;;6.30
76476;BMP280;65308;50.078;14.854;2023-04-15T04:15:26;97834.72;;;6.37
76476;BMP280;65308;50.078;14.854;2023-04-15T04:17:54;97834.19;;;6.51
76476;BMP280;65308;50.078;14.854;2023-04-15T04:20:21;97842.44;;;6.53
76476;BMP280;65308;50.078;14.854;2023-04-15T04:22:48;97840.97;;;6.61
76476;BMP280;65308;50.078;14.854;2023-04-15T04:25:15;97837.38;;;6.46
76476;BMP280;65308;50.078;14.854;2023-04-15T04:27:42;97843.84;;;6.27
76476;BMP280;65308;50.078;14.854;2023-04-15T04:30:10;97843.84;;;6.27
76476;BMP280;65308;50.078;14.854;2023-04-15T04:32:37;97845.38;;;6.37
76476;BMP280;65308;50.078;14.854;2023-04-15T04:35:05;97854.41;;;6.17
76476;BMP280;65308;50.078;14.854;2023-04-15T04:37:33;97850.97;;;6.08
76476;BMP280;65308;50.078;14.854;2023-04-15T04:39:59;97852.22;;;5.85
76476;BMP280;65308;50.078;14.854;2023-04-15T04:42:26;97863.53;;;5.76
76476;BMP280;65308;50.078;14.854;2023-04-15T04:44:53;97860.47;;;5.78
76476;BMP280;65308;50.078;14.854;2023-04-15T04:47:19;97861.53;;;5.67
76476;BMP280;65308;50.078;14.854;2023-04-15T04:49:46;97869.16;;;5.78
76476;BMP280;65308;50.078;14.854;2023-04-15T04:52:14;97875.25;;;5.66
76476;BMP280;65308;50.078;14.854;2023-04-15T04:54:41;97872.97;;;5.55
76476;BMP280;65308;50.078;14.854;2023-04-15T04:57:08;97881.31;;;5.66
76476;BMP280;65308;50.078;14.854;2023-04-15T04:59:34;97887.47;;;5.85
76476;BMP280;65308;50.078;14.854;2023-04-15T05:02:01;97890.06;;;5.54
76476;BMP280;65308;50.078;14.854;2023-04-15T05:04:28;97895.56;;;5.38
76476;BMP280;65308;50.078;14.854;2023-04-15T05:06:55;97889.53;;;5.37
76476;BMP280;65308;50.078;14.854;2023-04-15T05:09:24;97884.63;;;5.58
76476;BMP280;65308;50.078;14.854;2023-04-15T05:11:51;97888.34;;;5.60
76476;BMP280;65308;50.078;14.854;2023-04-15T05:14:17;97906.31;;;6.90
76476;BMP280;65308;50.078;14.854;2023-04-15T05:16:44;97905.38;;;8.61
76476;BMP280;65308;50.078;14.854;2023-04-15T05:19:11;97907.47;;;10.08
76476;BMP280;65308;50.078;14.854;2023-04-15T05:21:37;97911.81;;;11.02
76476;BMP280;65308;50.078;14.854;2023-04-15T05:24:05;97893.56;;;11.53
76476;BMP280;65308;50.078;14.854;2023-04-15T05:26:33;97908.09;;;11.20
76476;BMP280;65308;50.078;14.854;2023-04-15T05:29:01;97908.25;;;11.31
76476;BMP280;65308;50.078;14.854;2023-04-15T05:31:31;97910.50;;;10.92
76476;BMP280;65308;50.078;14.854;2023-04-15T05:34:01;97900.38;;;11.02
76476;BMP280;65308;50.078;14.854;2023-04-15T05:36:27;97907.56;;;10.49
76476;BMP280;65308;50.078;14.854;2023-04-15T05:38:55;97911.81;;;10.21
76476;BMP280;65308;50.078;14.854;2023-04-15T05:41:22;97916.22;;;9.20
76476;BMP280;65308;50.078;14.854;2023-04-15T05:43:53;97929.34;;;8.70
76476;BMP280;65308;50.078;14.854;2023-04-15T05:48:55;97919.28;;;8.65
76476;BMP280;65308;50.078;14.854;2023-04-15T05:51:51;97934.72;;;8.18
76476;BMP280;65308;50.078;14.854;2023-04-15T05:54:21;97929.03;;;8.01
76476;BMP280;65308;50.078;14.854;2023-04-15T05:56:54;97933.09;;;7.23
76476;BMP280;65308;50.078;14.854;2023-04-15T05:59:24;97949.22;;;7.11
76476;BMP280;65308;50.078;14.854;2023-04-15T06:02:05;97929.69;;;7.14
76476;BMP280;65308;50.078;14.854;2023-04-15T06:04:39;97941.41;;;7.35
76476;BMP280;65308;50.078;14.854;2023-04-15T06:07:09;97940.81;;;7.58
76476;BMP280;65308;50.078;14.854;2023-04-15T06:09:43;97953.50;;;7.36
76476;BMP280;65308;50.078;14.854;2023-04-15T06:12:10;97962.97;;;7.64
76476;BMP280;65308;50.078;14.854;2023-04-15T06:17:21;97951.72;;;8.30
76476;BMP280;65308;50.078;14.854;2023-04-15T06:19:48;97955.47;;;8.57
76476;BMP280;65308;50.078;14.854;2023-04-15T06:22:24;97954.00;;;8.56
76476;BMP280;65308;50.078;14.854;2023-04-15T06:25:12;97957.03;;;8.73
76476;BMP280;65308;50.078;14.854;2023-04-15T06:27:41;97957.28;;;8.51
76476;BMP280;65308;50.078;14.854;2023-04-15T06:30:09;97970.31;;;8.15
76476;BMP280;65308;50.078;14.854;2023-04-15T06:32:38;97963.28;;;8.36
76476;BMP280;65308;50.078;14.854;2023-04-15T06:37:42;97965.81;;;7.79
76476;BMP280;65308;50.078;14.854;2023-04-15T06:40:09;97980.25;;;7.96
76476;BMP280;65308;50.078;14.854;2023-04-15T06:42:36;97976.69;;;7.90
76476;BMP280;65308;50.078;14.854;2023-04-15T06:45:03;97977.00;;;7.92
76476;BMP280;65308;50.078;14.854;2023-04-15T06:47:31;97988.41;;;7.84
76476;BMP280;65308;50.078;14.854;2023-04-15T06:49:59;97980.44;;;7.74
76476;BMP280;65308;50.078;14.854;2023-04-15T06:52:25;97982.03;;;7.90
76476;BMP280;65308;50.078;14.854;2023-04-15T06:54:52;97985.56;;;8.06
76476;BMP280;65308;50.078;14.854;2023-04-15T06:57:27;97996.41;;;7.84
76476;BMP280;65308;50.078;14.854;2023-04-15T06:59:54;97985.13;;;8.07
76476;BMP280;65308;50.078;14.854;2023-04-15T07:02:22;97987.41;;;8.33
76476;BMP280;65308;50.078;14.854;2023-04-15T07:04:48;97994.75;;;8.47
76476;BMP280;65308;50.078;14.854;2023-04-15T07:07:16;98009.56;;;9.14
76476;BMP280;65308;50.078;14.854;2023-04-15T07:09:43;97997.09;;;9.11
76476;BMP280;65308;50.078;14.854;2023-04-15T07:12:10;98008.31;;;9.25
76476;BMP280;65308;50.078;14.854;2023-04-15T07:14:37;98002.66;;;8.75
76476;BMP280;65308;50.078;14.854;2023-04-15T07:17:04;98010.16;;;8.85
76476;BMP280;65308;50.078;14.854;2023-04-15T07:19:30;98005.34;;;9.23
76476;BMP280;65308;50.078;14.854;2023-04-15T07:22:00;98013.63;;;9.49
76476;BMP280;65308;50.078;14.854;2023-04-15T07:24:33;98024.00;;;9.85
76476;BMP280;65308;50.078;14.854;2023-04-15T07:27:00;98021.41;;;10.06
76476;BMP280;65308;50.078;14.854;2023-04-15T07:29:30;98024.19;;;9.97
76476;BMP280;65308;50.078;14.854;2023-04-15T07:32:07;98017.47;;;9.33
76476;BMP280;65308;50.078;14.854;2023-04-15T07:34:41;98022.91;;;9.14
76476;BMP280;65308;50.078;14.854;2023-04-15T07:37:30;98016.50;;;9.21
76476;BMP280;65308;50.078;14.854;2023-04-15T07:40:09;98023.44;;;8.70
76476;BMP280;65308;50.078;14.854;2023-04-15T07:42:59;98018.13;;;8.94
76476;BMP280;65308;50.078;14.854;2023-04-15T07:45:40;98005.91;;;9.03
76476;BMP280;65308;50.078;14.854;2023-04-15T07:48:10;98020.03;;;8.94
76476;BMP280;65308;50.078;14.854;2023-04-15T07:50:51;98026.75;;;8.89
76476;BMP280;65308;50.078;14.854;2023-04-15T07:53:26;98020.31;;;8.72
76476;BMP280;65308;50.078;14.854;2023-04-15T07:56:14;98027.59;;;8.11
76476;BMP280;65308;50.078;14.854;2023-04-15T07:58:44;98041.44;;;8.42
76476;BMP280;65308;50.078;14.854;2023-04-15T08:01:11;98035.31;;;8.60
76476;BMP280;65308;50.078;14.854;2023-04-15T08:03:54;98036.44;;;8.35
76476;BMP280;65308;50.078;14.854;2023-04-15T08:06:24;98028.19;;;8.24
76476;BMP280;65308;50.078;14.854;2023-04-15T08:08:53;98039.41;;;8.19
76476;BMP280;65308;50.078;14.854;2023-04-15T08:11:23;98034.69;;;8.23
76476;BMP280;65308;50.078;14.854;2023-04-15T08:13:51;98044.50;;;7.98
76476;BMP280;65308;50.078;14.854;2023-04-15T08:16:19;98052.50;;;8.17
76476;BMP280;65308;50.078;14.854;2023-04-15T08:18:48;98049.19;;;8.31
76476;BMP280;65308;50.078;14.854;2023-04-15T08:21:17;98055.25;;;8.41
76476;BMP280;65308;50.078;14.854;2023-04-15T08:23:49;98067.31;;;8.69
76476;BMP280;65308;50.078;14.854;2023-04-15T08:26:16;98053.88;;;8.55
76476;BMP280;65308;50.078;14.854;2023-04-15T08:28:57;98057.56;;;8.57
76476;BMP280;65308;50.078;14.854;2023-04-15T08:31:28;98056.09;;;8.38
76476;BMP280;65308;50.078;14.854;2023-04-15T08:33:56;98048.28;;;8.43
76476;BMP280;65308;50.078;14.854;2023-04-15T08:36:23;98057.34;;;8.18
76476;BMP280;65308;50.078;14.854;2023-04-15T08:38:51;98064.28;;;8.43
76476;BMP280;65308;50.078;14.854;2023-04-15T08:41:23;98067.53;;;8.38
76476;BMP280;65308;50.078;14.854;2023-04-15T08:44:01;98065.06;;;8.16
76476;BMP280;65308;50.078;14.854;2023-04-15T08:46:30;98070.84;;;8.24
76476;BMP280;65308;50.078;14.854;2023-04-15T08:49:00;98066.97;;;8.16
76476;BMP280;65308;50.078;14.854;2023-04-15T08:51:59;98078.50;;;8.31
76476;BMP280;65308;50.078;14.854;2023-04-15T08:54:31;98073.59;;;8.48
76476;BMP280;65308;50.078;14.854;2023-04-15T08:57:00;98070.63;;;8.37
76476;BMP280;65308;50.078;14.854;2023-04-15T08:59:34;98083.69;;;8.16
76476;BMP280;65308;50.078;14.854;2023-04-15T09:02:01;98076.47;;;8.17
76476;BMP280;65308;50.078;14.854;2023-04-15T09:04:28;98078.81;;;8.24
76476;BMP280;65308;50.078;14.854;2023-04-15T09:07:03;98077.94;;;8.27
76476;BMP280;65308;50.078;14.854;2023-04-15T09:09:30;98073.19;;;8.13
76476;BMP280;65308;50.078;14.854;2023-04-15T09:12:06;98063.06;;;8.44
76476;BMP280;65308;50.078;14.854;2023-04-15T09:14:35;98076.91;;;8.24
76476;BMP280;65308;50.078;14.854;2023-04-15T09:17:03;98071.88;;;8.27
76476;BMP280;65308;50.078;14.854;2023-04-15T09:19:36;98078.34;;;8.35
76476;BMP280;65308;50.078;14.854;2023-04-15T09:22:08;98081.13;;;8.40
76476;BMP280;65308;50.078;14.854;2023-04-15T09:24:37;98080.88;;;8.38
76476;BMP280;65308;50.078;14.854;2023-04-15T09:27:06;98082.41;;;8.73
76476;BMP280;65308;50.078;14.854;2023-04-15T09:32:13;98091.44;;;8.66
76476;BMP280;65308;50.078;14.854;2023-04-15T09:34:41;98089.72;;;8.54
76476;BMP280;65308;50.078;14.854;2023-04-15T09:37:12;98094.19;;;8.47
76476;BMP280;65308;50.078;14.854;2023-04-15T09:39:46;98075.25;;;8.36
76476;BMP280;65308;50.078;14.854;2023-04-15T09:42:15;98090.13;;;8.61
76476;BMP280;65308;50.078;14.854;2023-04-15T09:44:48;98087.94;;;8.60
76476;BMP280;65308;50.078;14.854;2023-04-15T09:50:00;98101.75;;;9.25
76476;BMP280;65308;50.078;14.854;2023-04-15T09:52:28;98108.59;;;9.50
76476;BMP280;65308;50.078;14.854;2023-04-15T09:54:59;98094.25;;;9.38
76476;BMP280;65308;50.078;14.854;2023-04-15T09:57:33;98103.22;;;9.26
76476;BMP280;65308;50.078;14.854;2023-04-15T10:00:00;98102.22;;;9.86
76476;BMP280;65308;50.078;14.854;2023-04-15T10:02:27;98100.34;;;9.77
76476;BMP280;65308;50.078;14.854;2023-04-15T10:04:56;98106.59;;;10.13
76476;BMP280;65308;50.078;14.854;2023-04-15T10:07:29;98107.91;;;10.32
76476;BMP280;65308;50.078;14.854;2023-04-15T10:09:57;98102.00;;;10.73
76476;BMP280;65308;50.078;14.854;2023-04-15T10:12:31;98099.53;;;10.40
76476;BMP280;65308;50.078;14.854;2023-04-15T10:15:04;98110.41;;;10.36
76476;BMP280;65308;50.078;14.854;2023-04-15T10:17:47;98102.72;;;10.73
76476;BMP280;65308;50.078;14.854;2023-04-15T10:20:35;98100.59;;;10.77
76476;BMP280;65308;50.078;14.854;2023-04-15T10:23:07;98109.00;;;11.05
76476;BMP280;65308;50.078;14.854;2023-04-15T10:25:37;98112.59;;;11.38
76476;BMP280;65308;50.078;14.854;2023-04-15T10:28:05;98106.81;;;11.04
76476;BMP280;65308;50.078;14.854;2023-04-15T10:30:32;98115.47;;;10.49
76476;BMP280;65308;50.078;14.854;2023-04-15T10:32:59;98119.06;;;10.60
76476;BMP280;65308;50.078;14.854;2023-04-15T10:35:31;98119.25;;;10.57
76476;BMP280;65308;50.078;14.854;2023-04-15T10:37:59;98123.13;;;10.56
76476;BMP280;65308;50.078;14.854;2023-04-15T10:40:29;98128.38;;;10.80
76476;BMP280;65308;50.078;14.854;2023-04-15T10:42:58;98117.84;;;11.12
76476;BMP280;65308;50.078;14.854;2023-04-15T10:45:34;98131.59;;;10.69
76476;BMP280;65308;50.078;14.854;2023-04-15T10:48:02;98127.06;;;10.31
76476;BMP280;65308;50.078;14.854;2023-04-15T10:50:30;98137.47;;;9.99
76476;BMP280;65308;50.078;14.854;2023-04-15T10:52:58;98130.50;;;9.30
76476;BMP280;65308;50.078;14.854;2023-04-15T10:55:25;98136.69;;;9.36
76476;BMP280;65308;50.078;14.854;2023-04-15T10:57:56;98138.00;;;9.16
76476;BMP280;65308;50.078;14.854;2023-04-15T11:00:27;98143.19;;;9.02
76476;BMP280;65308;50.078;14.854;2023-04-15T11:03:05;98140.16;;;8.85
76476;BMP280;65308;50.078;14.854;2023-04-15T11:05:50;98136.19;;;8.71
76476;BMP280;65308;50.078;14.854;2023-04-15T11:08:55;98147.72;;;8.86
76476;BMP280;65308;50.078;14.854;2023-04-15T11:14:26;98149.59;;;9.85
76476;BMP280;65308;50.078;14.854;2023-04-15T11:16:57;98152.31;;;10.00
76476;BMP280;65308;50.078;14.854;2023-04-15T11:19:35;98172.84;;;10.48
76476;BMP280;65308;50.078;14.854;2023-04-15T11:22:06;98160.25;;;10.09
76476;BMP280;65308;50.078;14.854;2023-04-15T11:24:34;98166.09;;;10.23
76476;BMP280;65308;50.078;14.854;2023-04-15T11:27:02;98158.94;;;9.90
76476;BMP280;65308;50.078;14.854;2023-04-15T11:29:31;98169.63;;;10.44
76476;BMP280;65308;50.078;14.854;2023-04-15T11:32:04;98154.53;;;10.02
76476;BMP280;65308;50.078;14.854;2023-04-15T11:34:33;98165.41;;;10.13
76476;BMP280;65308;50.078;14.854;2023-04-15T11:37:04;98177.03;;;10.25
76476;BMP280;65308;50.078;14.854;2023-04-15T11:39:32;98177.81;;;10.25
76476;BMP280;65308;50.078;14.854;2023-04-15T11:41:59;98179.88;;;10.45
76476;BMP280;65308;50.078;14.854;2023-04-15T11:44:26;98174.34;;;10.64
76476;BMP280;65308;50.078;14.854;2023-04-15T11:46:55;98178.78;;;10.52
76476;BMP280;65308;50.078;14.854;2023-04-15T11:49:26;98185.41;;;10.42
76476;BMP280;65308;50.078;14.854;2023-04-15T11:51:55;98186.50;;;10.79
76476;BMP280;65308;50.078;14.854;2023-04-15T11:54:23;98181.13;;;11.09
76476;BMP280;65308;50.078;14.854;2023-04-15T11:56:50;98188.09;;;11.21
76476;BMP280;65308;50.078;14.854;2023-04-15T11:59:19;98183.44;;;11.01
76476;BMP280;65308;50.078;14.854;2023-04-15T12:01:46;98185.16;;;11.04
76476;BMP280;65308;50.078;14.854;2023-04-15T12:04:24;98188.47;;;11.14
76476;BMP280;65308;50.078;14.854;2023-04-15T12:06:52;98181.34;;;10.61
76476;BMP280;65308;50.078;14.854;2023-04-15T12:09:25;98175.78;;;10.94
76476;BMP280;65308;50.078;14.854;2023-04-15T12:11:56;98183.72;;;11.03
76476;BMP280;65308;50.078;14.854;2023-04-15T12:14:24;98184.28;;;10.78
76476;BMP280;65308;50.078;14.854;2023-04-15T12:16:53;98192.69;;;10.86
76476;BMP280;65308;50.078;14.854;2023-04-15T12:19:26;98185.59;;;10.82
76476;BMP280;65308;50.078;14.854;2023-04-15T12:22:00;98198.31;;;11.38
76476;BMP280;65308;50.078;14.854;2023-04-15T12:24:32;98186.94;;;10.93
76476;BMP280;65308;50.078;14.854;2023-04-15T12:27:03;98182.25;;;10.58
76476;BMP280;65308;50.078;14.854;2023-04-15T12:29:32;98181.88;;;10.95
76476;BMP280;65308;50.078;14.854;2023-04-15T12:32:08;98193.38;;;11.51
76476;BMP280;65308;50.078;14.854;2023-04-15T12:34:49;98192.59;;;11.65
76476;BMP280;65308;50.078;14.854;2023-04-15T12:37:22;98201.44;;;11.51
76476;BMP280;65308;50.078;14.854;2023-04-15T12:39:50;98202.97;;;11.58
76476;BMP280;65308;50.078;14.854;2023-04-15T12:42:25;98207.41;;;12.27
76476;BMP280;65308;50.078;14.854;2023-04-15T12:44:52;98208.66;;;11.86
76476;BMP280;65308;50.078;14.854;2023-04-15T12:47:19;98217.53;;;12.64
76476;BMP280;65308;50.078;14.854;2023-04-15T12:49:49;98220.69;;;12.42
76476;BMP280;65308;50.078;14.854;2023-04-15T12:52:15;98212.97;;;13.13
76476;BMP280;65308;50.078;14.854;2023-04-15T12:54:43;98224.22;;;13.17
76476;BMP280;65308;50.078;14.854;2023-04-15T12:57:10;98220.09;;;12.53
76476;BMP280;65308;50.078;14.854;2023-04-15T12:59:37;98219.97;;;12.42
76476;BMP280;65308;50.078;14.854;2023-04-15T13:02:07;98225.94;;;12.51
76476;BMP280;65308;50.078;14.854;2023-04-15T13:04:36;98224.09;;;12.95
76476;BMP280;65308;50.078;14.854;2023-04-15T13:07:05;98233.25;;;12.83
76476;BMP280;65308;50.078;14.854;2023-04-15T13:09:31;98232.25;;;13.12
76476;BMP280;65308;50.078;14.854;2023-04-15T13:11:59;98233.34;;;13.80
76476;BMP280;65308;50.078;14.854;2023-04-15T13:14:27;98236.34;;;13.87
76476;BMP280;65308;50.078;14.854;2023-04-15T13:16:54;98235.22;;;14.39
76476;BMP280;65308;50.078;14.854;2023-04-15T13:19:20;98234.00;;;14.79
76476;BMP280;65308;50.078;14.854;2023-04-15T13:21:47;98244.50;;;15.11
76476;BMP280;65308;50.078;14.854;2023-04-15T13:24:17;98242.94;;;13.92
76476;BMP280;65308;50.078;14.854;2023-04-15T13:26:51;98236.84;;;13.06
76476;BMP280;65308;50.078;14.854;2023-04-15T13:29:23;98247.78;;;13.82
76476;BMP280;65308;50.078;14.854;2023-04-15T13:31:55;98242.16;;;13.32
76476;BMP280;65308;50.078;14.854;2023-04-15T13:34:22;98246.69;;;12.31
76476;BMP280;65308;50.078;14.854;2023-04-15T13:36:54;98242.97;;;12.02
76476;BMP280;65308;50.078;14.854;2023-04-15T13:39:22;98240.78;;;11.80
76476;BMP280;65308;50.078;14.854;2023-04-15T13:41:56;98237.53;;;11.41
76476;BMP280;65308;50.078;14.854;2023-04-15T13:44:24;98243.28;;;11.69
76476;BMP280;65308;50.078;14.854;2023-04-15T13:46:51;98242.00;;;11.44
76476;BMP280;65308;50.078;14.854;2023-04-15T13:49:28;98247.38;;;11.29
76476;BMP280;65308;50.078;14.854;2023-04-15T13:51:55;98252.03;;;10.99
76476;BMP280;65308;50.078;14.854;2023-04-15T13:54:23;98246.84;;;11.10
76476;BMP280;65308;50.078;14.854;2023-04-15T13:56:50;98256.75;;;10.89
76476;BMP280;65308;50.078;14.854;2023-04-15T13:59:24;98264.94;;;10.56
76476;BMP280;65308;50.078;14.854;2023-04-15T14:01:51;98256.84;;;10.80
76476;BMP280;65308;50.078;14.854;2023-04-15T14:04:23;98261.25;;;10.83
76476;BMP280;65308;50.078;14.854;2023-04-15T14:06:51;98255.19;;;10.82
76476;BMP280;65308;50.078;14.854;2023-04-15T14:12:02;98262.56;;;11.02
76476;BMP280;65308;50.078;14.854;2023-04-15T14:14:33;98261.75;;;11.11
76476;BMP280;65308;50.078;14.854;2023-04-15T14:17:11;98275.44;;;11.33
76476;BMP280;65308;50.078;14.854;2023-04-15T14:19:42;98284.63;;;11.62
76476;BMP280;65308;50.078;14.854;2023-04-15T14:22:08;98278.38;;;11.86
76476;BMP280;65308;50.078;14.854;2023-04-15T14:24:35;98290.78;;;12.03
76476;BMP280;65308;50.078;14.854;2023-04-15T14:27:05;98295.28;;;12.12
76476;BMP280;65308;50.078;14.854;2023-04-15T14:29:33;98288.03;;;11.98
76476;BMP280;65308;50.078;14.854;2023-04-15T14:32:02;98292.63;;;12.12
76476;BMP280;65308;50.078;14.854;2023-04-15T14:34:29;98299.03;;;12.20
76476;BMP280;65308;50.078;14.854;2023-04-15T14:36:55;98289.97;;;11.97